createdAt,value
2023-02-08T00:00:45.330Z,90.98
2023-02-08T00:01:45.322Z,90.45
2023-02-08T00:03:41.642Z,90.03
2023-02-08T00:04:41.584Z,91.82
2023-02-08T00:05:41.571Z,91.19
2023-02-08T00:06:41.545Z,90.94
2023-02-08T00:07:41.547Z,91.72
2023-02-08T00:08:41.552Z,90.87
2023-02-08T00:09:41.526Z,90.52
2023-02-08T00:10:41.827Z,90.52
2023-02-08T00:11:41.501Z,89.71
2023-02-08T00:12:41.486Z,89.56
2023-02-08T00:13:42.280Z,89.46
2023-02-08T00:14:41.476Z,89.07
2023-02-08T00:15:41.509Z,88.76
2023-02-08T00:16:41.453Z,90.13
2023-02-08T00:17:41.444Z,90.77
2023-02-08T00:18:41.431Z,91.50
2023-02-08T00:19:41.424Z,90.77
2023-02-08T00:20:41.810Z,91.08
2023-02-08T00:21:41.406Z,91.23
2023-02-08T00:22:41.388Z,91.30
2023-02-08T00:23:41.380Z,91.93
2023-02-08T00:24:41.370Z,91.50
2023-02-08T00:25:41.379Z,91.86
2023-02-08T00:26:41.341Z,91.61
2023-02-08T00:27:41.335Z,91.33
2023-02-08T00:28:41.320Z,91.55
2023-02-08T00:29:41.317Z,90.87
2023-02-08T00:30:41.643Z,90.28
2023-02-08T00:31:41.372Z,89.86
2023-02-08T00:32:41.281Z,90.28
2023-02-08T00:33:41.276Z,89.86
2023-02-08T00:34:41.262Z,90.38
2023-02-08T00:35:41.253Z,90.38
2023-02-08T00:36:41.253Z,90.06
2023-02-08T00:37:41.236Z,90.81
2023-02-08T00:38:41.226Z,91.97
2023-02-08T00:39:41.208Z,92.60
2023-02-08T00:40:41.508Z,92.60
2023-02-08T00:41:41.211Z,92.71
2023-02-08T00:42:41.177Z,93.55
2023-02-08T00:43:41.161Z,93.19
2023-02-08T00:44:41.165Z,93.51
2023-02-08T00:45:41.155Z,92.03
2023-02-08T00:46:41.162Z,92.14
2023-02-08T00:47:41.145Z,91.40
2023-02-08T00:48:41.107Z,92.24
2023-02-08T00:49:41.107Z,91.50
2023-02-08T00:50:41.435Z,91.30
2023-02-08T00:51:41.126Z,91.76
2023-02-08T00:52:41.078Z,92.18
2023-02-08T00:53:41.067Z,92.18
2023-02-08T00:54:41.053Z,91.55
2023-02-08T00:55:41.045Z,91.44
2023-02-08T00:56:41.048Z,91.44
2023-02-08T00:57:41.073Z,91.33
2023-02-08T00:58:41.018Z,89.86
2023-02-08T00:59:41.027Z,90.32
2023-02-08T01:00:41.458Z,89.89
2023-02-08T01:01:41.020Z,89.86
2023-02-08T01:02:40.971Z,89.69
2023-02-08T01:03:40.969Z,89.79
2023-02-08T01:04:40.947Z,89.58
2023-02-08T01:05:40.947Z,90.00
2023-02-08T01:06:40.941Z,90.21
2023-02-08T01:07:40.925Z,89.37
2023-02-08T01:08:40.910Z,88.94
2023-02-08T01:09:40.907Z,88.94
2023-02-08T01:10:41.171Z,88.77
2023-02-08T01:11:40.896Z,88.94
2023-02-08T01:12:40.868Z,88.73
2023-02-08T01:13:40.868Z,89.37
2023-02-08T01:14:40.882Z,89.62
2023-02-08T01:15:40.849Z,89.69
2023-02-08T01:16:40.904Z,89.58
2023-02-08T01:17:40.836Z,89.30
2023-02-08T01:18:40.852Z,88.98
2023-02-08T01:19:42.517Z,88.88
2023-02-08T01:20:41.104Z,88.77
2023-02-08T01:21:40.805Z,88.77
2023-02-08T01:22:41.916Z,89.40
2023-02-08T01:23:41.938Z,89.30
2023-02-08T01:24:41.910Z,89.94
2023-02-08T01:25:41.913Z,89.51
2023-02-08T01:26:41.878Z,89.40
2023-02-08T01:27:41.882Z,88.88
2023-02-08T01:28:41.868Z,89.09
2023-02-08T01:29:41.836Z,89.83
2023-02-08T01:30:42.295Z,90.25
2023-02-08T01:31:41.882Z,89.40
2023-02-08T01:32:41.849Z,89.09
2023-02-08T01:33:41.802Z,88.77
2023-02-08T01:34:44.037Z,88.67
2023-02-08T01:35:41.809Z,88.98
2023-02-08T01:36:41.844Z,89.83
2023-02-08T01:37:41.779Z,90.47
2023-02-08T01:38:41.754Z,90.84
2023-02-08T01:39:42.757Z,91.74
2023-02-08T01:40:41.970Z,91.63
2023-02-08T01:41:41.780Z,91.63
2023-02-08T01:42:41.745Z,91.88
2023-02-08T01:43:41.739Z,91.31
2023-02-08T01:44:42.712Z,91.10
2023-02-08T01:45:41.725Z,90.15
2023-02-08T01:46:41.731Z,90.36
2023-02-08T01:47:41.679Z,90.36
2023-02-08T01:48:41.667Z,90.57
2023-02-08T01:49:41.666Z,90.67
2023-02-08T01:50:42.122Z,90.36
2023-02-08T01:51:41.663Z,90.25
2023-02-08T01:52:41.624Z,90.99
2023-02-08T01:53:41.622Z,91.74
2023-02-08T01:54:41.617Z,91.42
2023-02-08T01:55:41.578Z,91.20
2023-02-08T01:56:41.612Z,91.42
2023-02-08T01:57:41.571Z,91.52
2023-02-08T01:58:41.573Z,91.94
2023-02-08T01:59:41.563Z,92.11
2023-02-08T02:00:42.087Z,93.11
2023-02-08T02:01:41.570Z,93.81
2023-02-08T02:02:41.517Z,93.49
2023-02-08T02:03:41.549Z,93.32
2023-02-08T02:04:41.600Z,93.07
2023-02-08T02:05:41.537Z,92.33
2023-02-08T02:06:41.590Z,92.22
2023-02-08T02:07:41.512Z,91.94
2023-02-08T02:08:41.487Z,91.63
2023-02-08T02:09:41.492Z,91.74
2023-02-08T02:10:41.885Z,91.52
2023-02-08T02:11:41.518Z,92.05
2023-02-08T02:12:41.449Z,91.31
2023-02-08T02:13:41.488Z,90.57
2023-02-08T02:14:41.458Z,91.14
2023-02-08T02:15:41.498Z,90.78
2023-02-08T02:16:41.512Z,90.82
2023-02-08T02:17:41.418Z,90.40
2023-02-08T02:18:41.446Z,90.61
2023-02-08T02:19:41.451Z,90.25
2023-02-08T02:20:41.737Z,89.98
2023-02-08T02:21:41.409Z,89.66
2023-02-08T02:22:41.441Z,88.92
2023-02-08T02:23:41.385Z,89.03
2023-02-08T02:24:41.406Z,89.23
2023-02-08T02:25:41.332Z,89.98
2023-02-08T02:26:41.341Z,89.87
2023-02-08T02:27:41.343Z,90.50
2023-02-08T02:28:41.323Z,90.30
2023-02-08T02:29:41.304Z,90.08
2023-02-08T02:30:42.685Z,90.08
2023-02-08T02:31:41.384Z,89.45
2023-02-08T02:32:41.312Z,89.98
2023-02-08T02:33:41.278Z,90.23
2023-02-08T02:34:41.280Z,90.08
2023-02-08T02:35:41.243Z,90.08
2023-02-08T02:36:41.227Z,90.08
2023-02-08T02:37:41.284Z,91.39
2023-02-08T02:38:41.233Z,92.10
2023-02-08T02:39:41.226Z,91.14
2023-02-08T02:40:41.484Z,91.03
2023-02-08T02:41:41.221Z,90.19
2023-02-08T02:42:41.224Z,90.40
2023-02-08T02:43:41.179Z,91.03
2023-02-08T02:44:41.174Z,91.14
2023-02-08T02:45:41.181Z,90.40
2023-02-08T02:46:41.149Z,90.08
2023-02-08T02:47:41.174Z,89.87
2023-02-08T02:48:41.178Z,90.55
2023-02-08T02:49:41.156Z,89.45
2023-02-08T02:50:41.385Z,89.06
2023-02-08T02:51:41.120Z,90.23
2023-02-08T02:52:41.133Z,89.98
2023-02-08T02:53:41.100Z,90.93
2023-02-08T02:54:41.107Z,91.03
2023-02-08T02:55:41.080Z,91.35
2023-02-08T02:56:41.078Z,90.55
2023-02-08T02:57:41.060Z,90.33
2023-02-08T02:58:41.042Z,89.91
2023-02-08T02:59:41.032Z,90.44
2023-02-08T03:00:41.397Z,89.91
2023-02-08T03:01:41.030Z,89.38
2023-02-08T03:02:41.041Z,89.38
2023-02-08T03:03:40.994Z,90.55
2023-02-08T03:04:41.098Z,89.91
2023-02-08T03:05:40.993Z,91.18
2023-02-08T03:06:40.973Z,91.82
2023-02-08T03:07:40.969Z,91.61
2023-02-08T03:08:40.981Z,91.61
2023-02-08T03:09:40.970Z,91.50
2023-02-08T03:10:41.276Z,91.39
2023-02-08T03:11:40.925Z,90.93
2023-02-08T03:12:40.916Z,90.33
2023-02-08T03:13:40.894Z,90.23
2023-02-08T03:14:40.892Z,89.70
2023-02-08T03:15:40.907Z,89.17
2023-02-08T03:16:41.006Z,89.34
2023-02-08T03:17:40.895Z,90.65
2023-02-08T03:18:40.873Z,90.50
2023-02-08T03:19:40.872Z,90.08
2023-02-08T03:20:41.138Z,89.45
2023-02-08T03:21:40.828Z,89.98
2023-02-08T03:22:40.834Z,90.44
2023-02-08T03:23:40.808Z,91.67
2023-02-08T03:24:40.787Z,91.46
2023-02-08T03:25:40.777Z,91.46
2023-02-08T03:26:40.804Z,91.18
2023-02-08T03:27:40.756Z,91.14
2023-02-08T03:28:40.767Z,90.86
2023-02-08T03:29:40.754Z,89.98
2023-02-08T03:30:41.220Z,91.67
2023-02-08T03:31:40.855Z,92.10
2023-02-08T03:32:40.704Z,92.20
2023-02-08T03:33:40.736Z,91.78
2023-02-08T03:34:40.727Z,91.46
2023-02-08T03:35:40.702Z,91.03
2023-02-08T03:36:40.694Z,90.33
2023-02-08T03:37:40.693Z,90.44
2023-02-08T03:38:40.710Z,89.98
2023-02-08T03:39:40.673Z,90.40
2023-02-08T03:40:40.999Z,90.30
2023-02-08T03:41:40.663Z,89.98
2023-02-08T03:42:40.652Z,90.55
2023-02-08T03:43:40.649Z,90.30
2023-02-08T03:44:41.596Z,90.12
2023-02-08T03:45:40.610Z,90.44
2023-02-08T03:46:40.608Z,89.70
2023-02-08T03:47:40.585Z,90.01
2023-02-08T03:48:40.597Z,90.33
2023-02-08T03:49:40.596Z,90.65
2023-02-08T03:50:40.817Z,90.37
2023-02-08T03:51:40.586Z,90.55
2023-02-08T03:52:40.547Z,90.23
2023-02-08T03:53:40.612Z,90.37
2023-02-08T03:54:40.513Z,90.27
2023-02-08T03:55:40.516Z,90.23
2023-02-08T03:56:40.507Z,90.37
2023-02-08T03:57:40.481Z,91.39
2023-02-08T03:58:40.498Z,90.80
2023-02-08T03:59:40.490Z,90.97
2023-02-08T04:00:40.751Z,91.08
2023-02-08T04:01:40.463Z,90.97
2023-02-08T04:02:40.496Z,91.61
2023-02-08T04:03:40.459Z,92.03
2023-02-08T04:04:40.423Z,91.82
2023-02-08T04:05:40.399Z,91.61
2023-02-08T04:06:40.395Z,91.93
2023-02-08T04:07:40.411Z,92.66
2023-02-08T04:08:40.354Z,92.35
2023-02-08T04:09:40.382Z,92.03
2023-02-08T04:10:40.664Z,91.71
2023-02-08T04:11:40.355Z,92.35
2023-02-08T04:12:40.344Z,92.35
2023-02-08T04:13:40.342Z,91.71
2023-02-08T04:14:40.322Z,91.71
2023-02-08T04:15:40.319Z,91.39
2023-02-08T04:16:41.299Z,90.27
2023-02-08T04:17:40.307Z,89.91
2023-02-08T04:18:40.277Z,90.12
2023-02-08T04:19:40.265Z,90.06
2023-02-08T04:20:40.579Z,89.64
2023-02-08T04:21:40.276Z,89.42
2023-02-08T04:22:40.210Z,89.31
2023-02-08T04:23:40.307Z,89.42
2023-02-08T04:24:40.228Z,89.53
2023-02-08T04:25:40.211Z,89.95
2023-02-08T04:26:40.206Z,90.16
2023-02-08T04:27:40.215Z,90.06
2023-02-08T04:28:40.204Z,90.27
2023-02-08T04:29:40.166Z,89.11
2023-02-08T04:30:40.556Z,88.93
2023-02-08T04:31:40.253Z,89.21
2023-02-08T04:32:40.192Z,88.72
2023-02-08T04:33:40.142Z,88.72
2023-02-08T04:34:40.155Z,88.51
2023-02-08T04:35:40.144Z,88.61
2023-02-08T04:36:40.129Z,88.93
2023-02-08T04:37:40.128Z,88.65
2023-02-08T04:38:40.103Z,88.72
2023-02-08T04:39:40.081Z,89.14
2023-02-08T04:40:40.408Z,89.40
2023-02-08T04:41:40.084Z,89.04
2023-02-08T04:42:40.077Z,89.36
2023-02-08T04:43:40.050Z,88.61
2023-02-08T04:44:40.013Z,88.51
2023-02-08T04:45:40.034Z,88.40
2023-02-08T04:46:40.068Z,88.40
2023-02-08T04:47:40.026Z,88.02
2023-02-08T04:48:40.006Z,88.09
2023-02-08T04:49:39.988Z,88.09
2023-02-08T04:50:40.174Z,88.12
2023-02-08T04:51:40.000Z,88.97
2023-02-08T04:52:39.967Z,89.50
2023-02-08T04:53:39.990Z,89.08
2023-02-08T04:54:40.918Z,89.57
2023-02-08T04:55:40.943Z,89.61
2023-02-08T04:56:39.930Z,89.40
2023-02-08T04:57:39.938Z,89.04
2023-02-08T04:58:39.897Z,89.40
2023-02-08T04:59:39.890Z,89.08
2023-02-08T05:00:40.316Z,89.72
2023-02-08T05:01:39.917Z,89.67
2023-02-08T05:02:39.850Z,89.08
2023-02-08T05:03:39.874Z,89.29
2023-02-08T05:04:39.866Z,88.76
2023-02-08T05:05:39.826Z,88.87
2023-02-08T05:06:39.852Z,88.34
2023-02-08T05:07:39.813Z,88.65
2023-02-08T05:08:39.817Z,88.23
2023-02-08T05:09:39.803Z,88.65
2023-02-08T05:10:40.074Z,89.29
2023-02-08T05:11:39.772Z,90.14
2023-02-08T05:12:39.769Z,90.73
2023-02-08T05:13:39.788Z,90.95
2023-02-08T05:14:39.786Z,92.32
2023-02-08T05:15:39.744Z,92.00
2023-02-08T05:16:39.749Z,91.79
2023-02-08T05:17:39.716Z,91.47
2023-02-08T05:18:39.710Z,91.58
2023-02-08T05:19:39.720Z,91.37
2023-02-08T05:20:40.016Z,91.79
2023-02-08T05:21:39.701Z,91.44
2023-02-08T05:22:39.675Z,91.16
2023-02-08T05:23:39.653Z,91.47
2023-02-08T05:24:39.701Z,91.16
2023-02-08T05:25:39.648Z,90.62
2023-02-08T05:26:39.634Z,90.10
2023-02-08T05:27:39.645Z,90.52
2023-02-08T05:28:39.646Z,90.10
2023-02-08T05:29:39.636Z,89.99
2023-02-08T05:30:39.909Z,89.99
2023-02-08T05:31:39.790Z,89.53
2023-02-08T05:32:39.570Z,89.57
2023-02-08T05:33:39.558Z,88.93
2023-02-08T05:34:39.587Z,89.57
2023-02-08T05:35:39.534Z,89.57
2023-02-08T05:36:39.523Z,89.50
2023-02-08T05:37:39.537Z,89.40
2023-02-08T05:38:39.513Z,89.61
2023-02-08T05:39:39.524Z,90.25
2023-02-08T05:40:39.829Z,89.93
2023-02-08T05:41:39.511Z,89.72
2023-02-08T05:42:39.484Z,90.14
2023-02-08T05:43:39.465Z,92.32
2023-02-08T05:44:39.477Z,92.05
2023-02-08T05:45:39.431Z,92.11
2023-02-08T05:46:39.465Z,91.52
2023-02-08T05:47:39.463Z,90.52
2023-02-08T05:48:39.421Z,90.14
2023-02-08T05:49:39.427Z,90.45
2023-02-08T05:50:39.694Z,89.29
2023-02-08T05:51:39.411Z,89.08
2023-02-08T05:52:39.402Z,88.97
2023-02-08T05:53:39.388Z,88.97
2023-02-08T05:54:39.380Z,88.76
2023-02-08T05:55:39.344Z,89.12
2023-02-08T05:56:39.355Z,88.87
2023-02-08T05:57:39.305Z,88.76
2023-02-08T05:58:39.322Z,89.61
2023-02-08T05:59:39.391Z,89.40
2023-02-08T06:00:39.658Z,89.18
2023-02-08T06:01:40.295Z,89.33
2023-02-08T06:02:39.325Z,89.08
2023-02-08T06:03:39.283Z,88.76
2023-02-08T06:04:39.380Z,88.87
2023-02-08T06:05:39.279Z,89.33
2023-02-08T06:06:39.284Z,89.29
2023-02-08T06:07:39.214Z,89.29
2023-02-08T06:08:39.266Z,89.72
2023-02-08T06:09:39.207Z,90.35
2023-02-08T06:10:39.524Z,91.52
2023-02-08T06:11:39.192Z,92.43
2023-02-08T06:12:39.211Z,92.47
2023-02-08T06:13:39.191Z,92.68
2023-02-08T06:14:39.234Z,92.00
2023-02-08T06:15:39.158Z,92.79
2023-02-08T06:16:39.174Z,91.94
2023-02-08T06:17:39.220Z,91.52
2023-02-08T06:18:39.141Z,92.15
2023-02-08T06:19:39.202Z,91.09
2023-02-08T06:20:39.393Z,90.42
2023-02-08T06:21:39.152Z,90.56
2023-02-08T06:22:39.181Z,90.31
2023-02-08T06:23:39.110Z,90.78
2023-02-08T06:24:39.117Z,90.14
2023-02-08T06:25:39.086Z,89.99
2023-02-08T06:26:39.084Z,90.35
2023-02-08T06:27:39.041Z,90.45
2023-02-08T06:28:39.156Z,90.14
2023-02-08T06:30:14.846Z,90.25
2023-02-08T06:30:39.554Z,89.61
2023-02-08T06:32:13.461Z,89.50
2023-02-08T06:32:39.113Z,90.35
2023-02-08T06:33:38.982Z,90.92
2023-02-08T06:34:39.083Z,91.94
2023-02-08T06:35:39.040Z,92.15
2023-02-08T06:36:38.991Z,91.45
2023-02-08T06:37:38.993Z,92.05
2023-02-08T06:38:38.980Z,91.09
2023-02-08T06:39:39.001Z,90.78
2023-02-08T06:40:39.300Z,90.45
2023-02-08T06:41:39.799Z,90.14
2023-02-08T06:42:38.915Z,90.14
2023-02-08T06:43:38.955Z,89.82
2023-02-08T06:44:45.905Z,90.08
2023-02-08T06:45:40.007Z,89.72
2023-02-08T06:46:38.950Z,90.18
2023-02-08T06:47:39.202Z,90.18
2023-02-08T06:48:38.881Z,90.35
2023-02-08T06:49:38.893Z,90.35
2023-02-08T06:50:39.231Z,90.88
2023-02-08T06:51:38.875Z,91.24
2023-02-08T06:52:38.912Z,91.83
2023-02-08T06:53:38.942Z,91.63
2023-02-08T06:54:38.875Z,90.88
2023-02-08T06:55:38.912Z,90.45
2023-02-08T06:56:38.964Z,89.72
2023-02-08T06:57:38.863Z,90.25
2023-02-08T06:58:38.806Z,90.35
2023-02-08T06:59:38.785Z,90.03
2023-02-08T07:00:39.113Z,89.61
2023-02-08T07:01:38.709Z,89.18
2023-02-08T07:02:38.895Z,89.93
2023-02-08T07:03:38.764Z,91.20
2023-02-08T07:04:38.941Z,91.41
2023-02-08T07:05:38.739Z,91.52
2023-02-08T07:06:38.715Z,91.52
2023-02-08T07:07:38.732Z,92.15
2023-02-08T07:08:38.674Z,92.36
2023-02-08T07:09:38.658Z,92.47
2023-02-08T07:10:39.109Z,91.52
2023-02-08T07:11:38.679Z,91.94
2023-02-08T07:12:38.696Z,91.94
2023-02-08T07:13:38.880Z,92.11
2023-02-08T07:14:38.666Z,91.79
2023-02-08T07:15:38.698Z,91.47
2023-02-08T07:16:38.767Z,90.10
2023-02-08T07:17:38.678Z,90.62
2023-02-08T07:18:39.732Z,91.69
2023-02-08T07:19:38.642Z,91.37
2023-02-08T07:20:38.903Z,91.12
2023-02-08T07:21:38.619Z,90.59
2023-02-08T07:22:38.621Z,90.01
2023-02-08T07:23:38.622Z,90.01
2023-02-08T07:24:38.646Z,90.65
2023-02-08T07:25:38.591Z,89.28
2023-02-08T07:26:38.666Z,89.34
2023-02-08T07:27:38.639Z,89.55
2023-02-08T07:28:38.562Z,89.03
2023-02-08T07:29:38.495Z,89.03
2023-02-08T07:30:38.879Z,89.13
2023-02-08T07:31:38.613Z,88.60
2023-02-08T07:32:38.451Z,88.60
2023-02-08T07:33:38.562Z,88.56
2023-02-08T07:34:38.516Z,88.67
2023-02-08T07:35:38.644Z,88.62
2023-02-08T07:36:38.437Z,89.15
2023-02-08T07:37:38.533Z,88.52
2023-02-08T07:38:38.646Z,88.31
2023-02-08T07:39:38.535Z,87.78
2023-02-08T07:40:38.616Z,87.78
2023-02-08T07:41:38.461Z,87.74
2023-02-08T07:42:38.557Z,87.74
2023-02-08T07:43:38.588Z,87.95
2023-02-08T07:44:38.360Z,88.59
2023-02-08T07:45:38.924Z,88.80
2023-02-08T07:46:38.449Z,89.32
2023-02-08T07:47:38.994Z,90.49
2023-02-08T07:48:40.255Z,89.22
2023-02-08T07:49:39.273Z,89.43
2023-02-08T07:50:38.352Z,89.43
2023-02-08T07:51:38.267Z,89.12
2023-02-08T07:52:38.252Z,90.13
2023-02-08T07:53:38.255Z,90.06
2023-02-08T07:54:38.205Z,90.23
2023-02-08T07:55:38.259Z,89.29
2023-02-08T07:56:38.240Z,88.65
2023-02-08T07:57:38.204Z,89.22
2023-02-08T07:58:38.198Z,90.13
2023-02-08T07:59:38.178Z,90.23
2023-02-08T08:00:38.537Z,89.07
2023-02-08T08:01:38.172Z,89.25
2023-02-08T08:02:38.183Z,88.82
2023-02-08T08:03:38.158Z,88.57
2023-02-08T08:04:38.163Z,88.57
2023-02-08T08:05:38.120Z,88.78
2023-02-08T08:06:38.080Z,89.10
2023-02-08T08:07:38.103Z,88.32
2023-02-08T08:08:38.089Z,88.32
2023-02-08T08:09:38.055Z,88.01
2023-02-08T08:10:38.290Z,87.90
2023-02-08T08:11:38.083Z,87.76
2023-02-08T08:12:38.030Z,87.65
2023-02-08T08:13:38.027Z,87.54
2023-02-08T08:14:38.052Z,87.12
2023-02-08T08:15:38.097Z,86.98
2023-02-08T08:16:38.018Z,86.77
2023-02-08T08:17:38.006Z,86.72
2023-02-08T08:18:37.995Z,86.41
2023-02-08T08:19:37.996Z,86.05
2023-02-08T08:20:38.122Z,84.78
2023-02-08T08:21:37.977Z,82.74
2023-02-08T08:22:37.934Z,79.76
2023-02-08T08:23:37.969Z,79.13
2023-02-08T08:24:37.966Z,79.41
2023-02-08T08:25:37.954Z,79.77
2023-02-08T08:26:37.936Z,80.82
2023-02-08T08:27:37.974Z,82.11
2023-02-08T08:28:37.903Z,82.95
2023-02-08T08:29:37.889Z,83.23
2023-02-08T08:30:37.946Z,84.18
2023-02-08T08:31:37.922Z,82.98
2023-02-08T08:32:37.864Z,82.78
2023-02-08T08:33:37.841Z,82.21
2023-02-08T08:34:37.828Z,80.43
2023-02-08T08:35:37.800Z,80.95
2023-02-08T08:36:37.813Z,81.48
2023-02-08T08:37:37.877Z,81.65
2023-02-08T08:38:37.797Z,81.65
2023-02-08T08:39:37.787Z,81.40
2023-02-08T08:40:37.773Z,81.47
2023-02-08T08:41:37.768Z,79.93
2023-02-08T08:42:37.744Z,80.42
2023-02-08T08:43:37.739Z,79.27
2023-02-08T08:44:37.723Z,79.27
2023-02-08T08:45:37.739Z,79.58
2023-02-08T08:46:37.743Z,80.21
2023-02-08T08:47:37.698Z,80.63
2023-02-08T08:48:37.710Z,80.42
2023-02-08T08:49:37.679Z,81.26
2023-02-08T08:50:37.664Z,81.61
2023-02-08T08:51:37.680Z,81.47
2023-02-08T08:52:37.666Z,80.84
2023-02-08T08:53:37.640Z,80.32
2023-02-08T08:54:37.667Z,80.66
2023-02-08T08:55:37.640Z,79.38
2023-02-08T08:56:37.652Z,79.79
2023-02-08T08:57:37.631Z,81.30
2023-02-08T08:58:37.636Z,82.14
2023-02-08T08:59:37.562Z,82.20
2023-02-08T09:00:37.564Z,81.85
2023-02-08T09:01:37.585Z,81.43
2023-02-08T09:02:37.562Z,79.44
2023-02-08T09:03:37.730Z,79.86
2023-02-08T09:04:37.508Z,79.65
2023-02-08T09:05:37.513Z,80.32
2023-02-08T09:06:37.523Z,80.84
2023-02-08T09:07:38.486Z,81.96
2023-02-08T09:08:37.496Z,81.82
2023-02-08T09:09:37.503Z,81.71
2023-02-08T09:10:37.473Z,81.36
2023-02-08T09:11:37.449Z,79.37
2023-02-08T09:12:37.485Z,80.21
2023-02-08T09:13:37.451Z,79.68
2023-02-08T09:14:37.421Z,79.68
2023-02-08T09:15:37.442Z,79.61
2023-02-08T09:16:37.420Z,78.67
2023-02-08T09:17:37.389Z,77.62
2023-02-08T09:18:38.421Z,77.73
2023-02-08T09:19:37.371Z,78.50
2023-02-08T09:20:37.371Z,78.81
2023-02-08T09:21:37.364Z,79.44
2023-02-08T09:22:37.354Z,80.27
2023-02-08T09:23:37.368Z,79.40
2023-02-08T09:24:37.299Z,78.91
2023-02-08T09:25:37.315Z,78.81
2023-02-08T09:26:37.300Z,78.88
2023-02-08T09:27:37.317Z,78.67
2023-02-08T09:28:37.299Z,79.19
2023-02-08T09:29:37.313Z,79.61
2023-02-08T09:30:37.293Z,79.82
2023-02-08T09:31:37.398Z,78.56
2023-02-08T09:32:37.310Z,77.94
2023-02-08T09:33:37.293Z,76.57
2023-02-08T09:34:37.288Z,76.89
2023-02-08T09:35:37.284Z,76.44
2023-02-08T09:36:37.233Z,75.01
2023-02-08T09:37:37.412Z,76.47
2023-02-08T09:38:37.172Z,76.65
2023-02-08T09:39:37.195Z,75.22
2023-02-08T09:40:37.229Z,75.49
2023-02-08T09:41:37.184Z,74.66
2023-02-08T09:42:37.227Z,74.35
2023-02-08T09:43:37.218Z,74.84
2023-02-08T09:44:37.228Z,77.14
2023-02-08T09:45:37.771Z,75.85
2023-02-08T09:46:37.127Z,74.32
2023-02-08T09:47:37.223Z,72.24
2023-02-08T09:48:37.144Z,70.33
2023-02-08T09:49:37.135Z,68.13
2023-02-08T09:50:37.083Z,64.92
2023-02-08T09:51:37.118Z,62.79
2023-02-08T09:52:37.161Z,60.66
2023-02-08T09:53:37.027Z,58.92
2023-02-08T09:54:37.104Z,57.53
2023-02-08T09:55:37.078Z,56.75
2023-02-08T09:56:37.103Z,57.73
2023-02-08T09:57:37.081Z,55.00
2023-02-08T09:58:37.011Z,54.25
2023-02-08T09:59:37.047Z,52.99
2023-02-08T10:04:13.359Z,56.26
2023-02-08T10:05:07.268Z,49.47
2023-02-08T10:06:07.621Z,48.47
2023-02-08T10:08:54.851Z,47.34
2023-02-08T10:09:32.819Z,46.81
2023-02-08T10:10:34.190Z,46.83
2023-02-08T10:11:32.763Z,50.37
2023-02-08T10:12:32.719Z,47.68
2023-02-08T10:13:41.076Z,47.25
2023-02-08T10:14:33.705Z,48.49
2023-02-08T10:15:32.821Z,44.73
2023-02-08T10:16:55.382Z,41.86
2023-02-08T10:17:32.680Z,42.71
2023-02-08T10:18:32.775Z,41.03
2023-02-08T10:19:32.728Z,45.78
2023-02-08T10:20:32.699Z,44.12
2023-02-08T10:21:32.688Z,43.44
2023-02-08T10:22:32.653Z,41.18
2023-02-08T10:23:32.628Z,40.35
2023-02-08T10:24:32.605Z,39.70
2023-02-08T10:25:32.606Z,40.90
2023-02-08T10:26:32.586Z,39.94
2023-02-08T10:29:15.271Z,37.90
2023-02-08T10:30:06.182Z,37.36
2023-02-08T10:31:06.622Z,36.13
2023-02-08T10:32:07.267Z,35.19
2023-02-08T10:33:06.138Z,35.08
2023-02-08T10:34:08.478Z,34.26
2023-02-08T10:35:06.756Z,35.44
2023-02-08T10:36:06.084Z,31.60
2023-02-08T10:37:06.133Z,33.00
2023-02-08T10:38:06.072Z,30.50
2023-02-08T10:39:06.110Z,30.32
2023-02-08T10:40:06.039Z,32.75
2023-02-08T10:41:06.035Z,32.24
2023-02-08T10:42:06.081Z,31.17
2023-02-08T10:43:06.004Z,32.39
2023-02-08T10:44:06.016Z,31.52
2023-02-08T10:45:18.858Z,31.06
2023-02-08T10:46:07.022Z,31.25
2023-02-08T10:47:06.045Z,32.93
2023-02-08T10:48:05.973Z,37.55
2023-02-08T10:49:05.962Z,36.57
2023-02-08T10:50:05.957Z,34.88
2023-02-08T10:51:05.940Z,32.71
2023-02-08T10:52:06.004Z,32.06
2023-02-08T10:53:05.956Z,29.19
2023-02-08T10:54:05.973Z,32.11
2023-02-08T10:55:05.882Z,31.69
2023-02-08T10:56:05.905Z,29.97
2023-02-08T10:57:05.882Z,30.73
2023-02-08T10:58:05.876Z,32.31
2023-02-08T10:59:05.850Z,30.12
2023-02-08T11:00:05.850Z,32.23
2023-02-08T11:01:08.603Z,29.29
2023-02-08T11:02:05.862Z,29.04
2023-02-08T11:03:05.913Z,31.56
2023-02-08T11:04:05.880Z,30.74
2023-02-08T11:05:05.773Z,29.88
2023-02-08T11:06:05.771Z,31.02
2023-02-08T11:07:05.775Z,32.78
2023-02-08T11:08:05.799Z,31.85
2023-02-08T11:09:05.757Z,30.83
2023-02-08T11:10:05.727Z,30.71
2023-02-08T11:11:05.747Z,31.04
2023-02-08T11:12:05.729Z,29.08
2023-02-08T11:13:05.782Z,28.35
2023-02-08T11:14:05.730Z,26.72
2023-02-08T11:15:05.715Z,23.97
2023-02-08T11:16:05.703Z,26.12
2023-02-08T11:17:05.702Z,28.34
2023-02-08T11:18:14.757Z,30.83
2023-02-08T11:19:08.434Z,31.56
2023-02-08T11:20:05.641Z,32.79
2023-02-08T11:21:11.280Z,32.29
2023-02-08T11:22:05.630Z,31.50
2023-02-08T11:23:05.633Z,31.67
2023-02-08T11:24:05.651Z,29.83
2023-02-08T11:25:05.670Z,31.88
2023-02-08T11:26:05.607Z,29.07
2023-02-08T11:27:05.573Z,26.50
2023-02-08T11:28:05.617Z,25.35
2023-02-08T11:29:05.612Z,25.01
2023-02-08T11:30:05.638Z,24.66
2023-02-08T11:31:05.531Z,23.18
2023-02-08T11:32:05.684Z,23.50
2023-02-08T11:33:05.573Z,22.75
2023-02-08T11:34:05.515Z,25.71
2023-02-08T11:35:05.495Z,25.23
2023-02-08T11:36:05.555Z,25.87
2023-02-08T11:37:05.523Z,25.71
2023-02-08T11:38:05.493Z,27.55
2023-02-08T11:39:05.506Z,29.52
2023-02-08T11:40:05.453Z,29.67
2023-02-08T11:41:05.464Z,31.86
2023-02-08T11:42:05.473Z,30.54
2023-02-08T11:43:05.440Z,31.69
2023-02-08T11:44:05.430Z,32.03
2023-02-08T11:45:05.445Z,34.97
2023-02-08T11:46:05.526Z,31.60
2023-02-08T11:47:05.451Z,32.28
2023-02-08T11:48:05.381Z,31.79
2023-02-08T11:49:05.434Z,30.35
2023-02-08T11:50:05.370Z,29.96
2023-02-08T11:51:05.389Z,29.80
2023-02-08T11:52:05.335Z,32.46
2023-02-08T11:53:05.335Z,31.83
2023-02-08T11:54:05.337Z,29.61
2023-02-08T11:55:05.300Z,30.79
2023-02-08T11:56:05.318Z,29.75
2023-02-08T11:57:05.299Z,30.40
2023-02-08T11:58:05.286Z,26.61
2023-02-08T11:59:05.328Z,27.40
2023-02-08T12:00:05.298Z,26.79
2023-02-08T12:01:05.270Z,25.51
2023-02-08T12:02:05.353Z,26.81
2023-02-08T12:03:05.308Z,26.81
2023-02-08T12:04:05.282Z,27.19
2023-02-08T12:05:05.224Z,25.98
2023-02-08T12:06:05.249Z,25.18
2023-02-08T12:07:06.625Z,25.38
2023-02-08T12:08:06.412Z,24.46
2023-02-08T12:13:58.799Z,25.81
2023-02-08T12:14:57.757Z,25.26
2023-02-08T12:15:58.888Z,27.40
2023-02-08T13:40:34.972Z,27.03
2023-02-08T13:41:35.253Z,27.33
2023-02-08T13:42:34.991Z,27.65
2023-02-08T13:43:36.925Z,27.97
2023-02-08T13:44:35.527Z,27.75
2023-02-08T13:45:34.940Z,27.56
2023-02-08T13:46:34.948Z,27.50
2023-02-08T13:47:34.890Z,27.73
2023-02-08T13:48:34.876Z,27.32
2023-02-08T13:49:34.926Z,27.29
2023-02-08T13:50:34.919Z,26.26
2023-02-08T13:51:34.914Z,28.42
2023-02-08T13:52:46.978Z,27.39
2023-02-08T13:53:35.882Z,28.62
2023-02-08T13:54:34.822Z,29.46
2023-02-08T13:55:34.878Z,29.71
2023-02-08T13:56:34.837Z,29.56
2023-02-08T13:57:34.806Z,31.22
2023-02-08T13:58:34.832Z,33.54
2023-02-08T13:59:34.789Z,32.47
2023-02-08T14:00:34.785Z,35.09
2023-02-08T14:01:34.839Z,35.22
2023-02-08T14:02:34.789Z,36.06
2023-02-08T14:03:34.768Z,35.46
2023-02-08T14:04:34.784Z,36.52
2023-02-08T14:05:34.710Z,36.51
2023-02-08T14:06:34.694Z,37.85
2023-02-08T14:07:34.681Z,39.50
2023-02-08T14:08:34.669Z,36.92
2023-02-08T14:09:34.663Z,37.04
2023-02-08T14:10:34.666Z,36.94
2023-02-08T14:11:34.640Z,36.75
2023-02-08T14:12:34.802Z,35.20
2023-02-08T14:13:34.632Z,35.20
2023-02-08T14:14:34.711Z,36.75
2023-02-08T14:15:34.619Z,38.60
2023-02-08T14:16:34.651Z,38.32
2023-02-08T14:17:34.595Z,38.32
2023-02-08T14:18:34.762Z,39.47
2023-02-08T14:19:34.736Z,38.11
2023-02-08T14:20:34.560Z,39.68
2023-02-08T14:21:34.562Z,40.71
2023-02-08T14:22:34.564Z,40.71
2023-02-08T14:23:34.551Z,39.78
2023-02-08T14:24:34.535Z,39.47
2023-02-08T14:25:34.729Z,39.58
2023-02-08T14:26:34.541Z,37.94
2023-02-08T14:27:34.488Z,40.61
2023-02-08T14:28:34.498Z,42.18